sensor_id;sensor_type;location;lat;lon;timestamp;pressure;altitude;pressure_sealevel;temperature
24278;BMP280;12394;42.692;23.314;2023-09-18T00:00:53;95487.41;;;17.83
24278;BMP280;12394;42.692;23.314;2023-09-18T00:03:20;95479.22;;;17.77
24278;BMP280;12394;42.692;23.314;2023-09-18T00:05:49;95488.56;;;17.82
24278;BMP280;12394;42.692;23.314;2023-09-18T00:08:15;95489.31;;;17.83
24278;BMP280;12394;42.692;23.314;2023-09-18T00:10:40;95476.59;;;17.90
24278;BMP280;12394;42.692;23.314;2023-09-18T00:13:06;95473.56;;;17.92
24278;BMP280;12394;42.692;23.314;2023-09-18T00:15:32;95478.75;;;17.95
24278;BMP280;12394;42.692;23.314;2023-09-18T00:17:57;95466.31;;;17.80
24278;BMP280;12394;42.692;23.314;2023-09-18T00:20:23;95480.97;;;17.84
24278;BMP280;12394;42.692;23.314;2023-09-18T00:22:53;95466.00;;;17.77
24278;BMP280;12394;42.692;23.314;2023-09-18T00:25:19;95481.19;;;17.90
24278;BMP280;12394;42.692;23.314;2023-09-18T00:27:44;95473.66;;;17.88
24278;BMP280;12394;42.692;23.314;2023-09-18T00:30:10;95465.59;;;17.79
24278;BMP280;12394;42.692;23.314;2023-09-18T00:32:36;95487.13;;;17.94
24278;BMP280;12394;42.692;23.314;2023-09-18T00:35:02;95486.16;;;17.88
24278;BMP280;12394;42.692;23.314;2023-09-18T00:37:28;95473.13;;;17.81
24278;BMP280;12394;42.692;23.314;2023-09-18T00:39:54;95477.47;;;17.87
24278;BMP280;12394;42.692;23.314;2023-09-18T00:42:19;95483.50;;;17.88
24278;BMP280;12394;42.692;23.314;2023-09-18T00:44:47;95486.47;;;17.90
24278;BMP280;12394;42.692;23.314;2023-09-18T00:47:14;95482.75;;;17.87
24278;BMP280;12394;42.692;23.314;2023-09-18T00:49:43;95489.44;;;17.92
24278;BMP280;12394;42.692;23.314;2023-09-18T00:52:10;95475.00;;;17.80
24278;BMP280;12394;42.692;23.314;2023-09-18T00:54:37;95466.09;;;17.74
24278;BMP280;12394;42.692;23.314;2023-09-18T00:57:04;95490.47;;;17.82
24278;BMP280;12394;42.692;23.314;2023-09-18T00:59:30;95487.16;;;17.77
24278;BMP280;12394;42.692;23.314;2023-09-18T01:01:56;95478.41;;;17.81
24278;BMP280;12394;42.692;23.314;2023-09-18T01:04:21;95477.44;;;17.74
24278;BMP280;12394;42.692;23.314;2023-09-18T01:06:47;95494.09;;;17.88
24278;BMP280;12394;42.692;23.314;2023-09-18T01:09:18;95493.44;;;17.84
24278;BMP280;12394;42.692;23.314;2023-09-18T01:14:44;95492.59;;;17.87
24278;BMP280;12394;42.692;23.314;2023-09-18T01:17:12;95492.06;;;17.79
24278;BMP280;12394;42.692;23.314;2023-09-18T01:22:05;95501.69;;;17.86
24278;BMP280;12394;42.692;23.314;2023-09-18T01:24:33;95494.94;;;17.85
24278;BMP280;12394;42.692;23.314;2023-09-18T01:26:58;95477.22;;;17.82
24278;BMP280;12394;42.692;23.314;2023-09-18T01:29:24;95492.69;;;17.83
24278;BMP280;12394;42.692;23.314;2023-09-18T01:31:49;95450.94;;;17.46
24278;BMP280;12394;42.692;23.314;2023-09-18T01:34:19;95484.38;;;17.68
24278;BMP280;12394;42.692;23.314;2023-09-18T01:36:46;95498.25;;;17.72
24278;BMP280;12394;42.692;23.314;2023-09-18T01:39:12;95491.81;;;17.73
24278;BMP280;12394;42.692;23.314;2023-09-18T01:41:38;95484.81;;;17.67
24278;BMP280;12394;42.692;23.314;2023-09-18T01:44:05;95497.19;;;17.70
24278;BMP280;12394;42.692;23.314;2023-09-18T01:46:34;95496.88;;;17.68
24278;BMP280;12394;42.692;23.314;2023-09-18T01:49:03;95494.66;;;17.66
24278;BMP280;12394;42.692;23.314;2023-09-18T01:51:31;95498.75;;;17.67
24278;BMP280;12394;42.692;23.314;2023-09-18T01:53:57;95493.41;;;17.71
24278;BMP280;12394;42.692;23.314;2023-09-18T01:56:23;95500.41;;;17.77
24278;BMP280;12394;42.692;23.314;2023-09-18T01:58:49;95485.53;;;17.67
24278;BMP280;12394;42.692;23.314;2023-09-18T02:01:14;95500.41;;;17.77
24278;BMP280;12394;42.692;23.314;2023-09-18T02:03:39;95496.47;;;17.69
24278;BMP280;12394;42.692;23.314;2023-09-18T02:06:10;95498.25;;;17.72
24278;BMP280;12394;42.692;23.314;2023-09-18T02:08:35;95490.69;;;17.58
24278;BMP280;12394;42.692;23.314;2023-09-18T02:11:01;95513.59;;;17.65
24278;BMP280;12394;42.692;23.314;2023-09-18T02:13:28;95502.16;;;17.68
24278;BMP280;12394;42.692;23.314;2023-09-18T02:15:54;95507.44;;;17.68
24278;BMP280;12394;42.692;23.314;2023-09-18T02:18:20;95504.91;;;17.64
24278;BMP280;12394;42.692;23.314;2023-09-18T02:20:46;95510.53;;;17.66
24278;BMP280;12394;42.692;23.314;2023-09-18T02:23:14;95509.78;;;17.66
24278;BMP280;12394;42.692;23.314;2023-09-18T02:25:40;95513.19;;;17.66
24278;BMP280;12394;42.692;23.314;2023-09-18T02:28:06;95502.91;;;17.68
24278;BMP280;12394;42.692;23.314;2023-09-18T02:30:32;95504.41;;;17.69
24278;BMP280;12394;42.692;23.314;2023-09-18T02:32:57;95496.22;;;17.64
24278;BMP280;12394;42.692;23.314;2023-09-18T02:35:23;95511.94;;;17.71
24278;BMP280;12394;42.692;23.314;2023-09-18T02:37:48;95518.47;;;17.66
24278;BMP280;12394;42.692;23.314;2023-09-18T02:40:13;95490.34;;;17.56
24278;BMP280;12394;42.692;23.314;2023-09-18T02:42:39;95501.50;;;17.64
24278;BMP280;12394;42.692;23.314;2023-09-18T02:45:05;95511.34;;;17.63
24278;BMP280;12394;42.692;23.314;2023-09-18T02:47:30;95513.69;;;17.61
24278;BMP280;12394;42.692;23.314;2023-09-18T02:49:55;95508.69;;;17.63
24278;BMP280;12394;42.692;23.314;2023-09-18T02:52:21;95470.13;;;17.33
24278;BMP280;12394;42.692;23.314;2023-09-18T02:54:46;95515.81;;;17.66
24278;BMP280;12394;42.692;23.314;2023-09-18T02:57:12;95512.53;;;17.62
24278;BMP280;12394;42.692;23.314;2023-09-18T02:59:37;95509.28;;;17.55
24278;BMP280;12394;42.692;23.314;2023-09-18T03:02:03;95512.34;;;17.53
24278;BMP280;12394;42.692;23.314;2023-09-18T03:04:29;95496.84;;;17.39
24278;BMP280;12394;42.692;23.314;2023-09-18T03:06:55;95501.09;;;17.49
24278;BMP280;12394;42.692;23.314;2023-09-18T03:09:20;95516.00;;;17.59
24278;BMP280;12394;42.692;23.314;2023-09-18T03:11:46;95511.84;;;17.58
24278;BMP280;12394;42.692;23.314;2023-09-18T03:14:12;95514.91;;;17.57
24278;BMP280;12394;42.692;23.314;2023-09-18T03:16:37;95517.97;;;17.55
24278;BMP280;12394;42.692;23.314;2023-09-18T03:19:02;95507.22;;;17.46
24278;BMP280;12394;42.692;23.314;2023-09-18T03:21:28;95493.75;;;17.41
24278;BMP280;12394;42.692;23.314;2023-09-18T03:23:54;95502.03;;;17.43
24278;BMP280;12394;42.692;23.314;2023-09-18T03:26:19;95506.97;;;17.41
24278;BMP280;12394;42.692;23.314;2023-09-18T03:28:44;95510.47;;;17.38
24278;BMP280;12394;42.692;23.314;2023-09-18T03:31:10;95503.28;;;17.38
24278;BMP280;12394;42.692;23.314;2023-09-18T03:33:35;95500.38;;;17.32
24278;BMP280;12394;42.692;23.314;2023-09-18T03:36:00;95485.94;;;17.21
24278;BMP280;12394;42.692;23.314;2023-09-18T03:38:26;95501.53;;;17.31
24278;BMP280;12394;42.692;23.314;2023-09-18T03:40:51;95506.81;;;17.31
24278;BMP280;12394;42.692;23.314;2023-09-18T03:43:17;95496.34;;;17.28
24278;BMP280;12394;42.692;23.314;2023-09-18T03:45:43;95477.75;;;17.15
24278;BMP280;12394;42.692;23.314;2023-09-18T03:48:08;95493.44;;;17.22
24278;BMP280;12394;42.692;23.314;2023-09-18T03:50:33;95489.66;;;17.23
24278;BMP280;12394;42.692;23.314;2023-09-18T03:52:59;95491.03;;;17.28
24278;BMP280;12394;42.692;23.314;2023-09-18T03:55:25;95482.13;;;17.22
24278;BMP280;12394;42.692;23.314;2023-09-18T03:57:52;95488.09;;;17.26
24278;BMP280;12394;42.692;23.314;2023-09-18T04:00:17;95488.09;;;17.26
24278;BMP280;12394;42.692;23.314;2023-09-18T04:02:43;95483.75;;;17.32
24278;BMP280;12394;42.692;23.314;2023-09-18T04:05:08;95487.25;;;17.29
24278;BMP280;12394;42.692;23.314;2023-09-18T04:07:35;95490.56;;;17.33
24278;BMP280;12394;42.692;23.314;2023-09-18T04:10:00;95489.91;;;17.29
24278;BMP280;12394;42.692;23.314;2023-09-18T04:12:26;95488.41;;;17.28
24278;BMP280;12394;42.692;23.314;2023-09-18T04:14:51;95491.03;;;17.28
24278;BMP280;12394;42.692;23.314;2023-09-18T04:17:17;95488.41;;;17.28
24278;BMP280;12394;42.692;23.314;2023-09-18T04:19:42;95498.88;;;17.31
24278;BMP280;12394;42.692;23.314;2023-09-18T04:22:08;95491.53;;;17.23
24278;BMP280;12394;42.692;23.314;2023-09-18T04:24:34;95509.81;;;17.33
24278;BMP280;12394;42.692;23.314;2023-09-18T04:26:59;95507.06;;;17.37
24278;BMP280;12394;42.692;23.314;2023-09-18T04:29:24;95504.44;;;17.37
24278;BMP280;12394;42.692;23.314;2023-09-18T04:31:50;95507.41;;;17.39
24278;BMP280;12394;42.692;23.314;2023-09-18T04:34:15;95507.41;;;17.39
24278;BMP280;12394;42.692;23.314;2023-09-18T04:36:41;95511.47;;;17.44
24278;BMP280;12394;42.692;23.314;2023-09-18T04:39:07;95511.13;;;17.42
24278;BMP280;12394;42.692;23.314;2023-09-18T04:41:33;95511.88;;;17.42
24278;BMP280;12394;42.692;23.314;2023-09-18T04:43:59;95499.69;;;17.45
24278;BMP280;12394;42.692;23.314;2023-09-18T04:46:24;95517.47;;;17.60
24278;BMP280;12394;42.692;23.314;2023-09-18T04:48:50;95521.44;;;17.68
24278;BMP280;12394;42.692;23.314;2023-09-18T04:51:16;95517.28;;;17.67
24278;BMP280;12394;42.692;23.314;2023-09-18T04:53:41;95508.78;;;17.76
24278;BMP280;12394;42.692;23.314;2023-09-18T04:56:08;95495.84;;;17.78
24278;BMP280;12394;42.692;23.314;2023-09-18T04:58:35;95495.56;;;17.89
24278;BMP280;12394;42.692;23.314;2023-09-18T05:01:02;95498.34;;;17.98
24278;BMP280;12394;42.692;23.314;2023-09-18T05:03:30;95504.94;;;18.06
24278;BMP280;12394;42.692;23.314;2023-09-18T05:05:55;95499.78;;;18.15
24278;BMP280;12394;42.692;23.314;2023-09-18T05:08:21;95505.38;;;18.17
24278;BMP280;12394;42.692;23.314;2023-09-18T05:10:46;95505.94;;;18.25
24278;BMP280;12394;42.692;23.314;2023-09-18T05:13:13;95497.44;;;18.17
24278;BMP280;12394;42.692;23.314;2023-09-18T05:15:38;95510.91;;;18.35
24278;BMP280;12394;42.692;23.314;2023-09-18T05:18:04;95515.06;;;18.49
24278;BMP280;12394;42.692;23.314;2023-09-18T05:20:30;95529.84;;;18.62
24278;BMP280;12394;42.692;23.314;2023-09-18T05:22:57;95527.97;;;18.76
24278;BMP280;12394;42.692;23.314;2023-09-18T05:25:24;95528.91;;;18.82
24278;BMP280;12394;42.692;23.314;2023-09-18T05:27:51;95518.09;;;18.76
24278;BMP280;12394;42.692;23.314;2023-09-18T05:30:26;95523.50;;;18.98
24278;BMP280;12394;42.692;23.314;2023-09-18T05:32:54;95528.38;;;19.12
24278;BMP280;12394;42.692;23.314;2023-09-18T05:35:19;95536.44;;;19.21
24278;BMP280;12394;42.692;23.314;2023-09-18T05:37:46;95525.91;;;19.18
24278;BMP280;12394;42.692;23.314;2023-09-18T05:40:13;95519.97;;;19.14
24278;BMP280;12394;42.692;23.314;2023-09-18T05:42:40;95518.50;;;19.00
24278;BMP280;12394;42.692;23.314;2023-09-18T05:45:08;95529.66;;;19.07
24278;BMP280;12394;42.692;23.314;2023-09-18T05:47:34;95529.94;;;19.22
24278;BMP280;12394;42.692;23.314;2023-09-18T05:50:05;95532.78;;;19.40
24278;BMP280;12394;42.692;23.314;2023-09-18T05:52:32;95536.69;;;19.61
24278;BMP280;12394;42.692;23.314;2023-09-18T05:54:58;95532.81;;;19.75
24278;BMP280;12394;42.692;23.314;2023-09-18T05:57:23;95538.81;;;19.88
24278;BMP280;12394;42.692;23.314;2023-09-18T05:59:48;95536.03;;;20.13
24278;BMP280;12394;42.692;23.314;2023-09-18T06:02:14;95537.91;;;20.25
24278;BMP280;12394;42.692;23.314;2023-09-18T06:04:41;95537.38;;;20.30
24278;BMP280;12394;42.692;23.314;2023-09-18T06:07:07;95533.16;;;20.42
24278;BMP280;12394;42.692;23.314;2023-09-18T06:09:32;95537.09;;;20.59
24278;BMP280;12394;42.692;23.314;2023-09-18T06:11:57;95538.84;;;20.53
24278;BMP280;12394;42.692;23.314;2023-09-18T06:14:24;95531.44;;;20.48
24278;BMP280;12394;42.692;23.314;2023-09-18T06:16:51;95528.25;;;20.40
24278;BMP280;12394;42.692;23.314;2023-09-18T06:19:16;95529.66;;;20.54
24278;BMP280;12394;42.692;23.314;2023-09-18T06:21:45;95535.72;;;20.55
24278;BMP280;12394;42.692;23.314;2023-09-18T06:24:10;95541.88;;;20.73
24278;BMP280;12394;42.692;23.314;2023-09-18T06:26:36;95529.66;;;20.85
24278;BMP280;12394;42.692;23.314;2023-09-18T06:29:01;95547.41;;;21.28
24278;BMP280;12394;42.692;23.314;2023-09-18T06:31:29;95533.69;;;21.29
24278;BMP280;12394;42.692;23.314;2023-09-18T06:33:56;95537.84;;;21.76
24278;BMP280;12394;42.692;23.314;2023-09-18T06:36:21;95548.38;;;22.25
24278;BMP280;12394;42.692;23.314;2023-09-18T06:38:47;95545.53;;;22.47
24278;BMP280;12394;42.692;23.314;2023-09-18T06:41:12;95549.13;;;22.86
24278;BMP280;12394;42.692;23.314;2023-09-18T06:43:38;95546.28;;;22.98
24278;BMP280;12394;42.692;23.314;2023-09-18T06:46:03;95537.78;;;23.33
24278;BMP280;12394;42.692;23.314;2023-09-18T06:48:29;95539.63;;;23.74
24278;BMP280;12394;42.692;23.314;2023-09-18T06:51:00;95547.88;;;24.39
24278;BMP280;12394;42.692;23.314;2023-09-18T06:53:28;95541.94;;;24.78
24278;BMP280;12394;42.692;23.314;2023-09-18T06:55:54;95544.41;;;24.82
24278;BMP280;12394;42.692;23.314;2023-09-18T06:58:20;95535.88;;;25.48
24278;BMP280;12394;42.692;23.314;2023-09-18T07:00:46;95544.25;;;25.96
24278;BMP280;12394;42.692;23.314;2023-09-18T07:03:11;95539.25;;;26.09
24278;BMP280;12394;42.692;23.314;2023-09-18T07:05:39;95534.19;;;26.37
24278;BMP280;12394;42.692;23.314;2023-09-18T07:08:05;95541.47;;;26.88
24278;BMP280;12394;42.692;23.314;2023-09-18T07:10:35;95541.47;;;26.88
24278;BMP280;12394;42.692;23.314;2023-09-18T07:13:00;95547.06;;;26.33
24278;BMP280;12394;42.692;23.314;2023-09-18T07:15:26;95539.50;;;26.63
24278;BMP280;12394;42.692;23.314;2023-09-18T07:17:51;95541.38;;;27.56
24278;BMP280;12394;42.692;23.314;2023-09-18T07:20:16;95541.34;;;28.26
24278;BMP280;12394;42.692;23.314;2023-09-18T07:22:46;95544.06;;;29.15
24278;BMP280;12394;42.692;23.314;2023-09-18T07:25:12;95531.34;;;29.16
24278;BMP280;12394;42.692;23.314;2023-09-18T07:27:38;95546.47;;;29.47
24278;BMP280;12394;42.692;23.314;2023-09-18T07:30:10;95534.28;;;29.92
24278;BMP280;12394;42.692;23.314;2023-09-18T07:32:36;95553.63;;;30.78
24278;BMP280;12394;42.692;23.314;2023-09-18T07:35:01;95518.31;;;31.25
24278;BMP280;12394;42.692;23.314;2023-09-18T07:37:49;95545.50;;;32.18
24278;BMP280;12394;42.692;23.314;2023-09-18T07:40:15;95546.06;;;32.30
24278;BMP280;12394;42.692;23.314;2023-09-18T07:42:42;95539.97;;;32.43
24278;BMP280;12394;42.692;23.314;2023-09-18T07:45:11;95541.53;;;32.19
24278;BMP280;12394;42.692;23.314;2023-09-18T07:47:37;95536.34;;;32.53
24278;BMP280;12394;42.692;23.314;2023-09-18T07:50:03;95543.25;;;32.86
24278;BMP280;12394;42.692;23.314;2023-09-18T07:52:29;95529.94;;;33.54
24278;BMP280;12394;42.692;23.314;2023-09-18T07:54:55;95536.59;;;34.60
24278;BMP280;12394;42.692;23.314;2023-09-18T07:57:21;95535.13;;;34.38
24278;BMP280;12394;42.692;23.314;2023-09-18T07:59:48;95530.97;;;34.79
24278;BMP280;12394;42.692;23.314;2023-09-18T08:02:13;95537.22;;;35.15
24278;BMP280;12394;42.692;23.314;2023-09-18T08:04:39;95531.31;;;35.24
24278;BMP280;12394;42.692;23.314;2023-09-18T08:07:04;95529.84;;;35.23
24278;BMP280;12394;42.692;23.314;2023-09-18T08:09:33;95531.44;;;35.83
24278;BMP280;12394;42.692;23.314;2023-09-18T08:12:02;95532.38;;;36.97
24278;BMP280;12394;42.692;23.314;2023-09-18T08:14:28;95530.13;;;38.37
24278;BMP280;12394;42.692;23.314;2023-09-18T08:16:58;95526.72;;;38.28
24278;BMP280;12394;42.692;23.314;2023-09-18T08:19:24;95529.19;;;38.09
24278;BMP280;12394;42.692;23.314;2023-09-18T08:21:53;95522.97;;;38.74
24278;BMP280;12394;42.692;23.314;2023-09-18T08:24:19;95510.41;;;39.12
24278;BMP280;12394;42.692;23.314;2023-09-18T08:26:45;95519.81;;;39.71
24278;BMP280;12394;42.692;23.314;2023-09-18T08:29:10;95517.25;;;39.90
24278;BMP280;12394;42.692;23.314;2023-09-18T08:31:35;95522.47;;;40.95
24278;BMP280;12394;42.692;23.314;2023-09-18T08:34:01;95490.75;;;41.02
24278;BMP280;12394;42.692;23.314;2023-09-18T08:36:26;95511.63;;;41.43
24278;BMP280;12394;42.692;23.314;2023-09-18T08:38:54;95473.34;;;41.95
24278;BMP280;12394;42.692;23.314;2023-09-18T08:41:20;95496.97;;;41.79
24278;BMP280;12394;42.692;23.314;2023-09-18T08:43:50;95481.06;;;41.68
24278;BMP280;12394;42.692;23.314;2023-09-18T08:46:17;95498.09;;;41.95
24278;BMP280;12394;42.692;23.314;2023-09-18T08:48:44;95471.72;;;42.52
24278;BMP280;12394;42.692;23.314;2023-09-18T08:51:10;95488.44;;;44.40
24278;BMP280;12394;42.692;23.314;2023-09-18T08:53:36;95476.28;;;44.10
24278;BMP280;12394;42.692;23.314;2023-09-18T08:56:04;95489.69;;;45.20
24278;BMP280;12394;42.692;23.314;2023-09-18T08:58:33;95479.34;;;45.57
24278;BMP280;12394;42.692;23.314;2023-09-18T09:01:02;95483.16;;;46.83
24278;BMP280;12394;42.692;23.314;2023-09-18T09:03:29;95478.72;;;45.84
24278;BMP280;12394;42.692;23.314;2023-09-18T09:05:55;95470.31;;;47.03
24278;BMP280;12394;42.692;23.314;2023-09-18T09:08:21;95471.13;;;48.72
24278;BMP280;12394;42.692;23.314;2023-09-18T09:10:46;95471.59;;;49.00
24278;BMP280;12394;42.692;23.314;2023-09-18T09:13:14;95476.72;;;49.23
24278;BMP280;12394;42.692;23.314;2023-09-18T09:15:47;95469.81;;;48.91
24278;BMP280;12394;42.692;23.314;2023-09-18T09:18:14;95461.94;;;48.36
24278;BMP280;12394;42.692;23.314;2023-09-18T09:20:40;95445.38;;;48.23
24278;BMP280;12394;42.692;23.314;2023-09-18T09:23:08;95455.16;;;46.36
24278;BMP280;12394;42.692;23.314;2023-09-18T09:25:35;95456.78;;;45.49
24278;BMP280;12394;42.692;23.314;2023-09-18T09:28:06;95448.69;;;45.28
24278;BMP280;12394;42.692;23.314;2023-09-18T09:30:35;95453.50;;;46.44
24278;BMP280;12394;42.692;23.314;2023-09-18T09:33:04;95456.47;;;47.91
24278;BMP280;12394;42.692;23.314;2023-09-18T09:35:33;95444.66;;;47.46
24278;BMP280;12394;42.692;23.314;2023-09-18T09:38:12;95449.63;;;46.77
24278;BMP280;12394;42.692;23.314;2023-09-18T09:40:41;95440.91;;;46.28
24278;BMP280;12394;42.692;23.314;2023-09-18T09:43:09;95452.53;;;45.23
24278;BMP280;12394;42.692;23.314;2023-09-18T09:45:36;95442.75;;;43.36
24278;BMP280;12394;42.692;23.314;2023-09-18T09:48:05;95434.06;;;40.05
24278;BMP280;12394;42.692;23.314;2023-09-18T09:50:32;95430.53;;;38.47
24278;BMP280;12394;42.692;23.314;2023-09-18T09:52:59;95435.72;;;40.17
24278;BMP280;12394;42.692;23.314;2023-09-18T09:55:31;95438.78;;;41.92
24278;BMP280;12394;42.692;23.314;2023-09-18T09:58:01;95427.97;;;43.20
24278;BMP280;12394;42.692;23.314;2023-09-18T10:00:49;95430.66;;;43.74
24278;BMP280;12394;42.692;23.314;2023-09-18T10:03:18;95423.38;;;44.48
24278;BMP280;12394;42.692;23.314;2023-09-18T10:05:45;95425.41;;;45.70
24278;BMP280;12394;42.692;23.314;2023-09-18T10:08:20;95413.03;;;44.84
24278;BMP280;12394;42.692;23.314;2023-09-18T10:10:51;95425.25;;;45.29
24278;BMP280;12394;42.692;23.314;2023-09-18T10:13:25;95416.81;;;46.30
24278;BMP280;12394;42.692;23.314;2023-09-18T10:15:53;95404.56;;;46.90
24278;BMP280;12394;42.692;23.314;2023-09-18T10:18:40;95407.34;;;46.08
24278;BMP280;12394;42.692;23.314;2023-09-18T10:21:44;95409.53;;;46.23
24278;BMP280;12394;42.692;23.314;2023-09-18T10:24:23;95409.22;;;46.17
24278;BMP280;12394;42.692;23.314;2023-09-18T10:26:59;95407.97;;;45.68
24278;BMP280;12394;42.692;23.314;2023-09-18T10:29:26;95393.31;;;45.51
24278;BMP280;12394;42.692;23.314;2023-09-18T10:31:53;95388.81;;;45.33
24278;BMP280;12394;42.692;23.314;2023-09-18T10:34:19;95386.41;;;44.65
24278;BMP280;12394;42.692;23.314;2023-09-18T10:36:49;95383.66;;;43.83
24278;BMP280;12394;42.692;23.314;2023-09-18T10:39:15;95363.53;;;43.03
24278;BMP280;12394;42.692;23.314;2023-09-18T10:41:47;95375.81;;;41.17
24278;BMP280;12394;42.692;23.314;2023-09-18T10:44:14;95366.59;;;40.84
24278;BMP280;12394;42.692;23.314;2023-09-18T10:46:42;95370.81;;;39.56
24278;BMP280;12394;42.692;23.314;2023-09-18T10:49:07;95370.94;;;38.46
24278;BMP280;12394;42.692;23.314;2023-09-18T10:51:32;95359.03;;;37.76
24278;BMP280;12394;42.692;23.314;2023-09-18T10:54:03;95362.09;;;37.56
24278;BMP280;12394;42.692;23.314;2023-09-18T10:56:28;95353.50;;;37.19
24278;BMP280;12394;42.692;23.314;2023-09-18T10:58:59;95352.34;;;36.82
24278;BMP280;12394;42.692;23.314;2023-09-18T11:01:27;95359.00;;;35.37
24278;BMP280;12394;42.692;23.314;2023-09-18T11:03:53;95347.56;;;34.59
24278;BMP280;12394;42.692;23.314;2023-09-18T11:06:24;95346.16;;;34.37
24278;BMP280;12394;42.692;23.314;2023-09-18T11:08:58;95357.06;;;33.62
24278;BMP280;12394;42.692;23.314;2023-09-18T11:11:26;95335.00;;;32.45
24278;BMP280;12394;42.692;23.314;2023-09-18T11:13:55;95340.63;;;32.21
24278;BMP280;12394;42.692;23.314;2023-09-18T11:21:29;95349.34;;;29.86
24278;BMP280;12394;42.692;23.314;2023-09-18T11:24:05;95343.59;;;30.00
24278;BMP280;12394;42.692;23.314;2023-09-18T11:26:33;95353.38;;;30.03
24278;BMP280;12394;42.692;23.314;2023-09-18T11:29:05;95335.13;;;29.50
24278;BMP280;12394;42.692;23.314;2023-09-18T11:34:21;95315.97;;;29.12
24278;BMP280;12394;42.692;23.314;2023-09-18T11:36:49;95325.81;;;29.04
24278;BMP280;12394;42.692;23.314;2023-09-18T11:39:41;95321.69;;;29.44
24278;BMP280;12394;42.692;23.314;2023-09-18T11:42:14;95308.94;;;29.45
24278;BMP280;12394;42.692;23.314;2023-09-18T11:44:42;95311.13;;;29.52
24278;BMP280;12394;42.692;23.314;2023-09-18T11:47:13;95308.00;;;29.72
24278;BMP280;12394;42.692;23.314;2023-09-18T11:49:52;95288.94;;;29.65
24278;BMP280;12394;42.692;23.314;2023-09-18T11:52:21;95321.19;;;29.46
24278;BMP280;12394;42.692;23.314;2023-09-18T11:54:47;95305.94;;;29.07
24278;BMP280;12394;42.692;23.314;2023-09-18T11:57:13;95304.53;;;28.95
24278;BMP280;12394;42.692;23.314;2023-09-18T11:59:40;95305.16;;;28.66
24278;BMP280;12394;42.692;23.314;2023-09-18T12:02:08;95300.53;;;28.50
24278;BMP280;12394;42.692;23.314;2023-09-18T12:04:33;95297.31;;;28.62
24278;BMP280;12394;42.692;23.314;2023-09-18T12:06:59;95307.78;;;28.83
24278;BMP280;12394;42.692;23.314;2023-09-18T12:09:31;95290.59;;;28.97
24278;BMP280;12394;42.692;23.314;2023-09-18T12:12:00;95295.84;;;29.19
24278;BMP280;12394;42.692;23.314;2023-09-18T12:14:31;95312.06;;;29.08
24278;BMP280;12394;42.692;23.314;2023-09-18T12:16:59;95307.84;;;28.71
24278;BMP280;12394;42.692;23.314;2023-09-18T12:19:25;95304.03;;;28.34
24278;BMP280;12394;42.692;23.314;2023-09-18T12:21:51;95286.69;;;28.18
24278;BMP280;12394;42.692;23.314;2023-09-18T12:24:23;95291.84;;;28.16
24278;BMP280;12394;42.692;23.314;2023-09-18T12:26:50;95292.81;;;28.07
24278;BMP280;12394;42.692;23.314;2023-09-18T12:29:16;95291.38;;;27.84
24278;BMP280;12394;42.692;23.314;2023-09-18T12:31:42;95287.94;;;27.89
24278;BMP280;12394;42.692;23.314;2023-09-18T12:34:17;95290.88;;;27.80
24278;BMP280;12394;42.692;23.314;2023-09-18T12:36:45;95288.19;;;27.69
24278;BMP280;12394;42.692;23.314;2023-09-18T12:39:14;95290.16;;;27.74
24278;BMP280;12394;42.692;23.314;2023-09-18T12:41:47;95293.06;;;27.98
24278;BMP280;12394;42.692;23.314;2023-09-18T12:44:13;95267.13;;;28.06
24278;BMP280;12394;42.692;23.314;2023-09-18T12:46:41;95289.09;;;28.33
24278;BMP280;12394;42.692;23.314;2023-09-18T12:49:17;95283.16;;;28.51
24278;BMP280;12394;42.692;23.314;2023-09-18T12:51:42;95272.94;;;28.33
24278;BMP280;12394;42.692;23.314;2023-09-18T12:54:09;95284.00;;;28.23
24278;BMP280;12394;42.692;23.314;2023-09-18T12:56:40;95272.75;;;28.03
24278;BMP280;12394;42.692;23.314;2023-09-18T12:59:06;95294.03;;;28.17
24278;BMP280;12394;42.692;23.314;2023-09-18T13:01:32;95270.31;;;28.05
24278;BMP280;12394;42.692;23.314;2023-09-18T13:03:57;95275.16;;;28.28
24278;BMP280;12394;42.692;23.314;2023-09-18T13:06:30;95281.28;;;28.29
24278;BMP280;12394;42.692;23.314;2023-09-18T13:08:55;95269.59;;;27.93
24278;BMP280;12394;42.692;23.314;2023-09-18T13:12:12;95281.81;;;27.72
24278;BMP280;12394;42.692;23.314;2023-09-18T13:15:00;95275.25;;;27.62
24278;BMP280;12394;42.692;23.314;2023-09-18T13:17:36;95270.81;;;27.48
24278;BMP280;12394;42.692;23.314;2023-09-18T13:20:08;95271.06;;;27.72
24278;BMP280;12394;42.692;23.314;2023-09-18T13:22:35;95265.91;;;27.96
24278;BMP280;12394;42.692;23.314;2023-09-18T13:25:00;95266.88;;;28.04
24278;BMP280;12394;42.692;23.314;2023-09-18T13:27:46;95273.28;;;27.73
24278;BMP280;12394;42.692;23.314;2023-09-18T13:30:11;95273.00;;;27.43
24278;BMP280;12394;42.692;23.314;2023-09-18T13:32:36;95258.34;;;27.33
24278;BMP280;12394;42.692;23.314;2023-09-18T13:35:05;95270.56;;;27.46
24278;BMP280;12394;42.692;23.314;2023-09-18T13:37:34;95271.78;;;27.44
24278;BMP280;12394;42.692;23.314;2023-09-18T13:40:00;95269.34;;;27.58
24278;BMP280;12394;42.692;23.314;2023-09-18T13:42:28;95254.94;;;27.50
24278;BMP280;12394;42.692;23.314;2023-09-18T13:44:58;95260.81;;;27.48
24278;BMP280;12394;42.692;23.314;2023-09-18T13:47:26;95271.06;;;27.50
24278;BMP280;12394;42.692;23.314;2023-09-18T13:49:52;95261.78;;;27.51
24278;BMP280;12394;42.692;23.314;2023-09-18T13:52:18;95260.31;;;27.38
24278;BMP280;12394;42.692;23.314;2023-09-18T13:54:46;95252.47;;;27.29
24278;BMP280;12394;42.692;23.314;2023-09-18T13:57:16;95235.88;;;27.25
24278;BMP280;12394;42.692;23.314;2023-09-18T13:59:42;95253.47;;;27.37
24278;BMP280;12394;42.692;23.314;2023-09-18T14:02:08;95259.31;;;27.41
24278;BMP280;12394;42.692;23.314;2023-09-18T14:04:33;95252.50;;;27.52
24278;BMP280;12394;42.692;23.314;2023-09-18T14:06:59;95254.94;;;27.55
24278;BMP280;12394;42.692;23.314;2023-09-18T14:09:24;95254.91;;;27.27
24278;BMP280;12394;42.692;23.314;2023-09-18T14:11:50;95255.59;;;26.89